createdAt,value
2022-11-12T00:00:13.924Z,7.40
2022-11-12T00:05:34.463Z,8.30
2022-11-12T00:10:54.074Z,6.57
2022-11-12T00:16:13.314Z,6.07
2022-11-12T00:21:32.901Z,10.57
2022-11-12T00:26:52.504Z,9.35
2022-11-12T00:32:12.826Z,7.87
2022-11-12T00:37:32.300Z,6.65
2022-11-12T00:42:52.222Z,7.50
2022-11-12T00:48:15.418Z,9.40
2022-11-12T00:53:35.086Z,7.50
2022-11-12T00:58:54.610Z,5.87
2022-11-12T01:04:14.033Z,2.97
2022-11-12T01:09:33.526Z,2.75
2022-11-12T01:14:52.909Z,2.65
2022-11-12T01:20:12.593Z,2.15
2022-11-12T01:25:32.112Z,2.03
2022-11-12T01:30:51.682Z,1.27
2022-11-12T01:36:13.304Z,1.77
2022-11-12T01:41:35.162Z,5.93
2022-11-12T01:47:17.927Z,5.93
2022-11-12T01:52:54.111Z,6.47
2022-11-12T01:58:18.764Z,3.78
2022-11-12T02:03:38.162Z,1.77
2022-11-12T02:08:57.764Z,2.25
2022-11-12T02:14:17.045Z,2.65
2022-11-12T02:19:37.254Z,2.90
2022-11-12T02:24:56.333Z,2.87
2022-11-12T02:30:29.989Z,1.70
2022-11-12T02:41:09.417Z,2.00
2022-11-12T02:46:28.721Z,2.50
2022-11-12T02:51:48.294Z,2.55
2022-11-12T02:57:07.900Z,3.00
2022-11-12T03:02:27.485Z,1.98
2022-11-12T03:07:47.007Z,3.80
2022-11-12T03:13:06.564Z,2.50
2022-11-12T03:18:26.352Z,2.50
2022-11-12T03:23:45.942Z,2.12
2022-11-12T03:29:05.348Z,2.90
2022-11-12T03:34:24.835Z,2.83
2022-11-12T03:39:44.522Z,3.70
2022-11-12T03:45:04.805Z,3.00
2022-11-12T03:50:27.083Z,2.12
2022-11-12T03:55:46.150Z,1.90
2022-11-12T04:01:06.458Z,1.60
2022-11-12T04:06:48.810Z,1.95
2022-11-12T04:12:26.967Z,1.80
2022-11-12T04:18:04.975Z,1.70
2022-11-12T04:23:24.226Z,2.30
2022-11-12T04:30:15.266Z,4.07
2022-11-12T04:35:34.955Z,1.90
2022-11-12T04:41:13.312Z,1.60
2022-11-12T04:46:33.071Z,1.80
2022-11-12T04:52:04.490Z,3.12
2022-11-12T04:57:24.242Z,2.95
2022-11-12T05:02:43.516Z,2.67
2022-11-12T05:08:03.139Z,2.78
2022-11-12T05:13:22.506Z,3.17
2022-11-12T05:18:42.092Z,4.82
2022-11-12T05:24:01.626Z,1.90
2022-11-12T05:29:21.284Z,1.70
2022-11-12T05:34:41.368Z,2.47
2022-11-12T05:40:00.759Z,2.90
2022-11-12T05:45:20.248Z,3.58
2022-11-12T05:51:06.207Z,5.72
2022-11-12T05:56:31.925Z,3.80
2022-11-12T06:01:51.496Z,3.33
2022-11-12T06:07:10.683Z,3.60
2022-11-12T06:12:30.603Z,2.70
2022-11-12T06:17:50.081Z,3.25
2022-11-12T06:23:12.608Z,3.75
2022-11-12T06:28:32.319Z,5.33
2022-11-12T06:33:51.880Z,4.05
2022-11-12T06:39:11.807Z,5.07
2022-11-12T06:44:31.454Z,5.68
2022-11-12T06:49:51.206Z,4.95
2022-11-12T06:55:10.824Z,5.15
2022-11-12T07:00:31.049Z,4.30
2022-11-12T07:05:50.354Z,3.78
2022-11-12T07:11:10.292Z,4.10
2022-11-12T07:16:29.946Z,4.28
2022-11-12T07:21:49.462Z,4.25
2022-11-12T07:27:08.830Z,6.87
2022-11-12T07:32:29.151Z,6.32
2022-11-12T07:37:48.341Z,4.53
2022-11-12T07:43:08.054Z,4.18
2022-11-12T07:48:29.603Z,5.30
2022-11-12T07:53:52.676Z,6.35
2022-11-12T07:59:16.129Z,5.50
2022-11-12T08:04:35.595Z,7.50
2022-11-12T08:09:55.100Z,7.97
2022-11-12T08:15:14.844Z,11.68
2022-11-12T08:20:34.254Z,8.15
2022-11-12T08:26:01.117Z,7.18
2022-11-12T08:31:23.500Z,6.55
2022-11-12T08:36:42.883Z,6.18
2022-11-12T08:42:05.516Z,5.93
2022-11-12T08:47:24.993Z,5.78
2022-11-12T08:52:44.617Z,4.68
2022-11-12T08:58:05.399Z,7.25
2022-11-12T09:03:26.029Z,5.10
2022-11-12T09:08:45.385Z,3.97
2022-11-12T09:14:05.184Z,4.25
2022-11-12T09:19:24.578Z,4.00
2022-11-12T09:24:44.184Z,4.57
2022-11-12T09:30:05.841Z,5.00
2022-11-12T09:35:25.122Z,6.15
2022-11-12T09:41:16.848Z,4.80
2022-11-12T09:46:56.925Z,3.40
2022-11-12T09:52:23.432Z,3.20
2022-11-12T09:57:42.661Z,3.95
2022-11-12T10:03:36.948Z,4.95
2022-11-12T10:09:04.631Z,3.25
2022-11-12T10:15:20.958Z,7.03
2022-11-12T10:22:18.453Z,6.10
2022-11-12T10:27:40.862Z,8.00
2022-11-12T10:33:00.882Z,7.23
2022-11-12T10:38:26.417Z,7.37
2022-11-12T10:43:59.071Z,7.40
2022-11-12T10:49:24.478Z,8.37
2022-11-12T10:54:43.724Z,11.52
2022-11-12T11:00:19.762Z,8.30
2022-11-12T11:07:31.415Z,7.72
2022-11-12T11:13:08.833Z,10.18
2022-11-12T11:18:30.480Z,10.15
2022-11-12T11:24:36.156Z,9.38
2022-11-12T11:30:19.217Z,9.68
2022-11-12T11:36:18.212Z,14.32
2022-11-12T11:42:58.276Z,11.32
2022-11-12T11:51:36.117Z,12.30
2022-11-12T11:56:59.454Z,9.75
2022-11-12T12:03:57.736Z,11.77
2022-11-12T12:11:14.429Z,8.65
2022-11-12T12:19:49.084Z,9.68
2022-11-12T12:25:20.886Z,10.60
2022-11-12T12:30:44.772Z,12.57
2022-11-12T12:36:16.654Z,14.70
2022-11-12T12:42:08.579Z,15.13
2022-11-12T12:47:30.598Z,13.70
2022-11-12T12:53:16.242Z,16.52
2022-11-12T12:58:45.177Z,14.57
2022-11-12T13:04:08.396Z,17.42
2022-11-12T13:09:28.365Z,13.62
2022-11-12T13:15:07.344Z,16.45
2022-11-12T13:20:35.788Z,17.35
2022-11-12T13:26:51.362Z,16.35
2022-11-12T13:32:33.968Z,21.60
2022-11-12T13:38:05.562Z,16.87
2022-11-12T13:43:36.219Z,19.05
2022-11-12T13:49:08.070Z,20.83
2022-11-12T13:54:37.871Z,21.92
2022-11-12T14:00:26.420Z,16.50
2022-11-12T14:05:50.032Z,15.82
2022-11-12T14:11:38.669Z,16.95
2022-11-12T14:17:30.881Z,15.00
2022-11-12T14:22:50.753Z,18.10
2022-11-12T14:28:31.634Z,20.15
2022-11-12T14:33:50.900Z,22.58
2022-11-12T14:39:10.926Z,22.80
2022-11-12T14:44:35.583Z,16.70
2022-11-12T14:49:57.131Z,20.55
2022-11-12T14:55:27.353Z,22.58
2022-11-12T15:00:50.619Z,18.17
2022-11-12T15:06:10.959Z,15.77
2022-11-12T15:11:44.476Z,13.68
2022-11-12T15:22:28.238Z,11.95
2022-11-12T15:27:48.522Z,10.77
2022-11-12T15:33:20.548Z,9.40
2022-11-12T15:38:40.223Z,10.10
2022-11-12T15:43:59.768Z,11.55
2022-11-12T15:49:19.104Z,10.15
2022-11-12T15:54:41.478Z,8.98
2022-11-12T16:00:08.355Z,12.27
2022-11-12T16:05:34.737Z,12.90
2022-11-12T16:10:54.672Z,15.13
2022-11-12T16:16:14.791Z,15.73
2022-11-12T16:21:34.837Z,13.62
2022-11-12T16:27:01.652Z,12.27
2022-11-12T16:32:21.340Z,10.63
2022-11-12T16:37:42.933Z,12.77
2022-11-12T16:43:02.698Z,10.85
2022-11-12T16:48:22.156Z,10.13
2022-11-12T16:53:41.890Z,10.00
2022-11-12T16:59:01.349Z,11.48
2022-11-12T17:04:23.703Z,11.90
2022-11-12T17:09:43.073Z,12.02
2022-11-12T17:15:03.324Z,15.00
2022-11-12T17:20:32.199Z,12.50
2022-11-12T17:26:00.093Z,14.02
2022-11-12T17:31:24.182Z,15.80
2022-11-12T17:36:47.443Z,14.85
2022-11-12T17:42:07.249Z,17.40
2022-11-12T17:47:27.041Z,18.10
2022-11-12T17:52:46.425Z,17.77
2022-11-12T17:58:06.627Z,16.60
2022-11-12T18:03:26.133Z,16.45
2022-11-12T18:08:56.118Z,20.70
2022-11-12T18:14:16.601Z,24.65
2022-11-12T18:19:38.753Z,21.20
2022-11-12T18:24:58.008Z,18.58
2022-11-12T18:30:19.446Z,20.45
2022-11-12T18:35:39.415Z,18.90
2022-11-12T18:41:04.360Z,20.27
2022-11-12T18:46:23.839Z,14.27
2022-11-12T18:51:43.476Z,9.80
2022-11-12T18:57:03.009Z,11.00
2022-11-12T19:02:22.295Z,9.60
2022-11-12T19:07:41.913Z,11.40
2022-11-12T19:13:03.336Z,19.83
2022-11-12T19:18:22.811Z,14.57
2022-11-12T19:23:42.778Z,10.82
2022-11-12T19:29:02.346Z,10.98
2022-11-12T19:34:21.814Z,10.45
2022-11-12T19:39:41.583Z,11.57
2022-11-12T19:45:04.813Z,12.77
2022-11-12T19:50:30.625Z,12.45
2022-11-12T19:55:50.175Z,13.20
2022-11-12T20:01:12.609Z,12.13
2022-11-12T20:06:32.357Z,13.07
2022-11-12T20:11:51.949Z,13.48
2022-11-12T20:17:11.795Z,15.02
2022-11-12T20:22:34.255Z,14.10
2022-11-12T20:27:57.629Z,15.23
2022-11-12T20:33:17.062Z,16.33
2022-11-12T20:38:41.366Z,15.05
2022-11-12T20:44:02.259Z,15.75
2022-11-12T20:49:21.906Z,15.43
2022-11-12T20:54:41.360Z,14.87
2022-11-12T21:00:01.127Z,15.32
2022-11-12T21:05:20.839Z,13.20
2022-11-12T21:10:40.649Z,13.27
2022-11-12T21:16:00.845Z,14.43
2022-11-12T21:21:20.439Z,15.90
2022-11-12T21:26:39.835Z,16.80
2022-11-12T21:31:59.924Z,16.30
2022-11-12T21:37:19.315Z,15.45
2022-11-12T21:42:45.353Z,17.30
2022-11-12T21:48:10.770Z,16.80
2022-11-12T21:53:30.287Z,19.00
2022-11-12T21:58:49.990Z,19.30
2022-11-12T22:04:10.922Z,17.52
2022-11-12T22:09:34.367Z,19.80
2022-11-12T22:14:53.904Z,20.25
2022-11-12T22:20:13.623Z,18.67
2022-11-12T22:25:32.952Z,20.90
2022-11-12T22:30:52.647Z,20.73
2022-11-12T22:36:14.532Z,20.23
2022-11-12T22:41:34.088Z,18.75
2022-11-12T22:46:53.536Z,17.30
2022-11-12T22:52:13.623Z,17.00
2022-11-12T22:57:33.317Z,15.48
2022-11-12T23:02:53.021Z,15.32
2022-11-12T23:08:12.512Z,16.67
2022-11-12T23:13:32.419Z,16.70
2022-11-12T23:18:52.635Z,16.15
2022-11-12T23:24:11.833Z,16.10
2022-11-12T23:29:31.302Z,16.02
2022-11-12T23:34:54.012Z,17.42
2022-11-12T23:40:14.559Z,18.17
2022-11-12T23:45:39.761Z,16.25
2022-11-12T23:51:05.136Z,18.52
2022-11-12T23:56:24.991Z,17.15
